createdAt,value
2019-03-06T00:01:16.165Z,6.79
2019-03-06T00:03:45.632Z,6.78
2019-03-06T00:06:16.980Z,6.78
2019-03-06T00:08:46.311Z,6.66
2019-03-06T00:11:16.970Z,6.68
2019-03-06T00:13:46.186Z,6.46
2019-03-06T00:16:15.673Z,6.18
2019-03-06T00:18:45.180Z,5.88
2019-03-06T00:21:14.733Z,5.88
2019-03-06T00:23:44.469Z,5.87
2019-03-06T00:26:14.268Z,5.62
2019-03-06T00:28:43.769Z,5.43
2019-03-06T00:31:14.164Z,5.41
2019-03-06T00:33:43.606Z,5.30
2019-03-06T00:36:15.043Z,5.23
2019-03-06T00:38:44.569Z,5.38
2019-03-06T00:41:16.240Z,5.33
2019-03-06T00:43:45.863Z,5.42
2019-03-06T00:46:15.711Z,5.54
2019-03-06T00:48:45.277Z,5.57
2019-03-06T00:51:14.806Z,5.53
2019-03-06T00:53:44.279Z,5.63
2019-03-06T00:56:13.938Z,5.78
2019-03-06T00:58:43.502Z,5.80
2019-03-06T01:01:13.451Z,6.04
2019-03-06T01:03:42.972Z,6.11
2019-03-06T01:06:12.706Z,5.98
2019-03-06T01:08:42.271Z,5.91
2019-03-06T01:11:12.240Z,6.08
2019-03-06T01:13:41.899Z,5.95
2019-03-06T01:16:11.892Z,5.86
2019-03-06T01:18:41.651Z,6.08
2019-03-06T01:21:11.972Z,5.57
2019-03-06T01:23:41.556Z,5.60
2019-03-06T01:26:11.574Z,5.47
2019-03-06T01:28:41.279Z,5.52
2019-03-06T01:31:11.457Z,5.51
2019-03-06T01:33:42.559Z,5.44
2019-03-06T01:36:13.860Z,5.57
2019-03-06T01:38:45.035Z,5.56
2019-03-06T01:41:16.235Z,5.63
2019-03-06T01:43:47.770Z,5.72
2019-03-06T01:46:17.276Z,5.79
2019-03-06T01:48:46.758Z,5.79
2019-03-06T01:51:16.271Z,5.77
2019-03-06T01:53:45.743Z,5.73
2019-03-06T01:56:15.229Z,5.82
2019-03-06T01:58:44.753Z,5.74
2019-03-06T02:01:14.594Z,5.65
2019-03-06T02:03:44.155Z,5.79
2019-03-06T02:06:13.847Z,5.79
2019-03-06T02:08:43.393Z,5.87
2019-03-06T02:11:13.567Z,5.99
2019-03-06T02:13:43.118Z,5.92
2019-03-06T02:16:12.800Z,5.98
2019-03-06T02:18:42.702Z,6.12
2019-03-06T02:21:12.711Z,6.09
2019-03-06T02:23:42.316Z,5.99
2019-03-06T02:26:12.367Z,5.94
2019-03-06T02:28:41.802Z,5.94
2019-03-06T02:31:11.878Z,6.05
2019-03-06T02:33:41.429Z,6.07
2019-03-06T02:36:12.445Z,6.06
2019-03-06T02:38:41.951Z,6.03
2019-03-06T02:41:11.788Z,5.92
2019-03-06T02:43:41.409Z,5.81
2019-03-06T02:46:11.423Z,5.87
2019-03-06T02:48:41.054Z,6.04
2019-03-06T02:51:11.126Z,6.08
2019-03-06T02:53:40.612Z,6.25
2019-03-06T02:56:10.771Z,6.16
2019-03-06T02:58:42.117Z,6.03
2019-03-06T03:01:13.525Z,5.95
2019-03-06T03:03:44.648Z,5.96
2019-03-06T03:06:16.070Z,5.99
2019-03-06T03:08:45.526Z,6.07
2019-03-06T03:11:15.066Z,5.92
2019-03-06T03:13:44.219Z,6.12
2019-03-06T03:16:13.942Z,6.08
2019-03-06T03:18:43.609Z,6.06
2019-03-06T03:21:13.234Z,6.13
2019-03-06T03:23:42.780Z,6.14
2019-03-06T03:26:12.655Z,5.99
2019-03-06T03:28:42.249Z,5.98
2019-03-06T03:31:12.356Z,6.09
2019-03-06T03:33:42.016Z,6.00
2019-03-06T03:36:12.153Z,5.97
2019-03-06T03:38:42.395Z,5.90
2019-03-06T03:41:12.315Z,5.85
2019-03-06T03:47:16.006Z,5.76
2019-03-06T03:49:45.517Z,5.75
2019-03-06T03:52:15.063Z,5.76
2019-03-06T03:54:44.505Z,5.75
2019-03-06T03:57:14.388Z,5.70
2019-03-06T03:59:43.988Z,5.67
2019-03-06T04:02:14.059Z,5.71
2019-03-06T04:04:43.573Z,5.87
2019-03-06T04:07:13.210Z,5.85
2019-03-06T04:09:42.829Z,5.79
2019-03-06T04:12:12.531Z,5.74
2019-03-06T04:14:42.080Z,5.75
2019-03-06T04:17:11.966Z,5.70
2019-03-06T04:19:41.518Z,5.70
2019-03-06T04:22:11.507Z,5.71
2019-03-06T04:24:41.024Z,5.69
2019-03-06T04:27:11.071Z,5.64
2019-03-06T04:29:40.541Z,5.67
2019-03-06T04:32:10.592Z,5.66
2019-03-06T04:34:40.223Z,5.63
2019-03-06T04:37:10.447Z,5.64
2019-03-06T04:39:39.969Z,5.62
2019-03-06T04:42:09.863Z,5.66
2019-03-06T04:44:39.433Z,5.70
2019-03-06T04:47:08.903Z,5.73
2019-03-06T04:49:38.360Z,5.69
2019-03-06T04:52:07.899Z,5.60
2019-03-06T04:54:37.204Z,5.52
2019-03-06T04:57:06.892Z,5.48
2019-03-06T04:59:36.393Z,5.40
2019-03-06T05:02:06.105Z,5.45
2019-03-06T05:04:35.660Z,5.44
2019-03-06T05:07:05.175Z,5.46
2019-03-06T05:09:34.657Z,5.36
2019-03-06T05:12:04.258Z,5.35
2019-03-06T05:14:33.833Z,5.34
2019-03-06T05:17:05.037Z,5.23
2019-03-06T05:19:34.604Z,5.28
2019-03-06T05:22:04.302Z,5.28
2019-03-06T05:24:33.791Z,5.26
2019-03-06T05:27:03.320Z,5.27
2019-03-06T05:29:32.910Z,5.27
2019-03-06T05:32:05.486Z,5.29
2019-03-06T05:34:35.149Z,5.34
2019-03-06T05:37:07.856Z,5.33
2019-03-06T05:39:37.390Z,5.30
2019-03-06T05:42:07.242Z,5.30
2019-03-06T05:44:37.073Z,5.28
2019-03-06T05:47:06.770Z,5.19
2019-03-06T05:49:36.458Z,5.13
2019-03-06T05:52:06.474Z,5.10
2019-03-06T05:54:36.095Z,5.07
2019-03-06T05:57:05.653Z,5.11
2019-03-06T05:59:35.113Z,5.08
2019-03-06T06:02:04.643Z,5.07
2019-03-06T06:04:33.894Z,5.09
2019-03-06T06:07:03.369Z,5.05
2019-03-06T06:09:32.922Z,5.11
2019-03-06T06:12:02.452Z,5.14
2019-03-06T06:14:31.927Z,5.20
2019-03-06T06:17:01.456Z,5.24
2019-03-06T06:19:30.672Z,5.30
2019-03-06T06:22:01.809Z,5.48
2019-03-06T06:24:31.432Z,5.46
2019-03-06T06:27:01.024Z,5.58
2019-03-06T06:29:30.646Z,5.84
2019-03-06T06:32:00.242Z,6.18
2019-03-06T06:34:29.771Z,6.53
2019-03-06T06:36:59.425Z,7.08
2019-03-06T06:39:28.889Z,7.30
2019-03-06T06:41:59.251Z,8.40
2019-03-06T06:44:28.876Z,8.64
2019-03-06T06:46:58.361Z,8.72
2019-03-06T06:49:27.892Z,8.26
2019-03-06T06:52:00.488Z,7.50
2019-03-06T06:54:33.370Z,7.38
2019-03-06T06:57:06.265Z,7.14
2019-03-06T06:59:36.941Z,7.02
2019-03-06T07:02:11.234Z,7.50
2019-03-06T07:04:44.296Z,7.67
2019-03-06T07:07:15.529Z,7.90
2019-03-06T07:09:46.737Z,7.38
2019-03-06T07:12:17.935Z,7.40
2019-03-06T07:14:49.481Z,7.43
2019-03-06T07:17:20.685Z,7.52
2019-03-06T07:19:51.908Z,8.33
2019-03-06T07:22:23.060Z,8.22
2019-03-06T07:24:54.467Z,8.39
2019-03-06T07:27:25.697Z,8.05
2019-03-06T07:29:56.901Z,8.37
2019-03-06T07:32:28.182Z,8.44
2019-03-06T07:35:02.435Z,9.16
2019-03-06T07:37:33.558Z,8.82
2019-03-06T07:40:04.488Z,9.00
2019-03-06T07:42:35.647Z,10.21
2019-03-06T07:45:12.798Z,10.68
2019-03-06T07:47:44.129Z,10.62
2019-03-06T07:50:15.617Z,11.01
2019-03-06T07:52:49.851Z,10.77
2019-03-06T07:55:21.060Z,11.10
2019-03-06T07:57:53.639Z,10.37
2019-03-06T08:00:23.228Z,10.57
2019-03-06T08:02:55.801Z,10.94
2019-03-06T08:05:26.327Z,9.85
2019-03-06T08:07:55.902Z,9.41
2019-03-06T08:10:27.192Z,9.21
2019-03-06T08:12:58.392Z,9.14
2019-03-06T08:15:29.900Z,9.48
2019-03-06T08:18:01.087Z,9.28
2019-03-06T08:20:31.626Z,9.14
2019-03-06T08:23:02.900Z,9.40
2019-03-06T08:25:34.572Z,10.04
2019-03-06T08:28:04.157Z,9.17
2019-03-06T08:30:35.449Z,9.26
2019-03-06T08:33:05.332Z,9.78
2019-03-06T08:35:34.819Z,10.22
2019-03-06T08:38:04.405Z,10.05
2019-03-06T08:40:33.883Z,11.09
2019-03-06T08:43:03.490Z,11.26
2019-03-06T08:48:31.129Z,11.39
2019-03-06T08:51:02.360Z,12.24
2019-03-06T08:53:33.494Z,11.81
2019-03-06T08:56:04.804Z,12.55
2019-03-06T08:58:36.011Z,13.22
2019-03-06T09:01:10.773Z,12.24
2019-03-06T09:03:41.993Z,13.18
2019-03-06T09:06:13.401Z,13.96
2019-03-06T09:08:44.618Z,13.48
2019-03-06T09:11:15.002Z,13.88
2019-03-06T09:13:46.217Z,13.68
2019-03-06T09:16:17.513Z,13.51
2019-03-06T09:18:48.710Z,12.50
2019-03-06T09:21:19.893Z,12.13
2019-03-06T09:23:51.074Z,12.52
2019-03-06T09:26:22.552Z,12.83
2019-03-06T09:29:00.676Z,13.01
2019-03-06T09:31:26.715Z,13.16
2019-03-06T09:33:58.002Z,13.28
2019-03-06T09:36:29.503Z,13.11
2019-03-06T09:39:00.494Z,12.64
2019-03-06T09:41:31.028Z,12.74
2019-03-06T09:44:02.339Z,13.04
2019-03-06T09:46:33.625Z,13.15
2019-03-06T09:49:11.092Z,13.44
2019-03-06T09:51:37.695Z,13.28
2019-03-06T09:54:09.208Z,13.20
2019-03-06T09:56:40.362Z,13.57
2019-03-06T09:59:11.492Z,13.34
2019-03-06T10:01:42.691Z,13.41
2019-03-06T10:04:16.809Z,13.49
2019-03-06T10:06:48.122Z,13.57
2019-03-06T10:09:21.699Z,13.54
2019-03-06T10:11:52.965Z,13.65
2019-03-06T10:14:24.281Z,13.69
2019-03-06T10:16:57.584Z,13.55
2019-03-06T10:19:29.590Z,13.64
2019-03-06T10:21:59.308Z,13.60
2019-03-06T10:24:28.850Z,13.58
2019-03-06T10:26:58.399Z,13.80
2019-03-06T10:29:28.068Z,14.01
2019-03-06T10:31:57.590Z,14.26
2019-03-06T10:34:27.230Z,14.12
2019-03-06T10:36:56.779Z,14.42
2019-03-06T10:39:26.137Z,14.44
2019-03-06T10:41:55.645Z,14.85
2019-03-06T10:44:29.521Z,15.25
2019-03-06T10:46:56.496Z,15.32
2019-03-06T10:49:26.308Z,15.38
2019-03-06T10:51:55.914Z,15.73
2019-03-06T10:54:25.476Z,16.10
2019-03-06T10:56:55.083Z,16.42
2019-03-06T10:59:24.700Z,16.80
2019-03-06T11:01:54.285Z,16.53
2019-03-06T11:04:24.835Z,16.43
2019-03-06T11:06:54.693Z,16.58
2019-03-06T11:09:25.924Z,16.75
2019-03-06T11:11:55.672Z,16.93
2019-03-06T11:14:25.676Z,16.75
2019-03-06T11:16:55.297Z,16.69
2019-03-06T11:19:25.115Z,16.65
2019-03-06T11:21:54.831Z,16.88
2019-03-06T11:24:24.621Z,16.80
2019-03-06T11:26:54.318Z,16.62
2019-03-06T11:29:24.367Z,16.97
2019-03-06T11:31:54.061Z,17.12
2019-03-06T11:34:24.688Z,16.94
2019-03-06T11:36:54.561Z,16.67
2019-03-06T11:39:24.291Z,16.86
2019-03-06T11:41:53.886Z,16.89
2019-03-06T11:44:23.428Z,16.99
2019-03-06T11:46:53.182Z,17.14
2019-03-06T11:49:22.611Z,17.43
2019-03-06T11:51:52.199Z,17.37
2019-03-06T11:54:22.129Z,17.63
2019-03-06T11:56:51.744Z,17.78
2019-03-06T11:59:21.355Z,17.70
2019-03-06T12:01:50.977Z,17.86
2019-03-06T12:04:20.678Z,17.59
2019-03-06T12:06:50.214Z,17.06
2019-03-06T12:09:22.807Z,16.73
2019-03-06T12:11:52.342Z,16.61
2019-03-06T12:14:21.864Z,15.60
2019-03-06T12:16:51.393Z,15.34
2019-03-06T12:19:21.387Z,15.57
2019-03-06T12:21:51.025Z,15.38
2019-03-06T12:24:20.637Z,15.82
2019-03-06T12:26:50.124Z,15.72
2019-03-06T12:29:19.666Z,15.48
2019-03-06T12:31:49.267Z,15.21
2019-03-06T12:34:18.764Z,15.07
2019-03-06T12:36:48.434Z,15.41
2019-03-06T12:39:18.016Z,15.80
2019-03-06T12:41:47.576Z,15.64
2019-03-06T12:44:16.963Z,15.66
2019-03-06T12:46:46.707Z,15.48
2019-03-06T12:49:16.458Z,14.93
2019-03-06T12:51:54.136Z,15.15
2019-03-06T12:54:17.024Z,14.73
2019-03-06T12:56:46.558Z,14.78
2019-03-06T12:59:16.144Z,14.70
2019-03-06T13:01:45.854Z,14.64
2019-03-06T13:04:15.313Z,14.66
2019-03-06T13:06:44.885Z,14.65
2019-03-06T13:09:16.776Z,14.50
2019-03-06T13:11:46.410Z,14.60
2019-03-06T13:14:16.195Z,14.73
2019-03-06T13:16:46.275Z,14.84
2019-03-06T13:19:15.722Z,14.67
2019-03-06T13:22:25.235Z,14.72
2019-03-06T13:24:54.518Z,14.85
2019-03-06T13:27:24.142Z,15.30
2019-03-06T13:29:53.679Z,15.56
2019-03-06T13:32:24.921Z,15.55
2019-03-06T13:34:54.761Z,15.32
2019-03-06T13:37:24.206Z,15.36
2019-03-06T13:39:53.606Z,15.22
2019-03-06T13:42:23.055Z,15.23
2019-03-06T13:44:52.678Z,15.08
2019-03-06T13:47:22.123Z,15.04
2019-03-06T13:49:52.512Z,15.04
2019-03-06T13:52:21.999Z,14.97
2019-03-06T13:54:51.581Z,14.90
2019-03-06T13:57:21.210Z,15.17
2019-03-06T13:59:50.929Z,15.66
2019-03-06T14:02:20.386Z,15.80
2019-03-06T14:04:50.286Z,15.73
2019-03-06T14:07:19.984Z,16.16
2019-03-06T14:09:50.343Z,15.93
2019-03-06T14:12:19.913Z,15.83
2019-03-06T14:14:49.524Z,15.98
2019-03-06T14:17:19.281Z,15.95
2019-03-06T14:19:49.010Z,16.02
2019-03-06T14:22:19.019Z,15.89
2019-03-06T14:24:48.593Z,16.15
2019-03-06T14:27:18.193Z,16.00
2019-03-06T14:29:47.693Z,16.07
2019-03-06T14:32:17.311Z,15.93
2019-03-06T14:34:46.834Z,15.93
2019-03-06T14:37:16.570Z,16.02
2019-03-06T14:39:46.255Z,16.14
2019-03-06T14:42:15.993Z,15.94
2019-03-06T14:44:45.599Z,16.19
2019-03-06T14:47:15.562Z,16.51
2019-03-06T14:49:45.291Z,16.56
2019-03-06T14:52:14.880Z,16.66
2019-03-06T14:54:44.494Z,16.62
2019-03-06T14:57:14.300Z,16.41
2019-03-06T14:59:43.837Z,16.55
2019-03-06T15:02:13.699Z,16.60
2019-03-06T15:04:43.303Z,16.75
2019-03-06T15:07:12.544Z,16.89
2019-03-06T15:09:42.254Z,16.88
2019-03-06T15:12:11.849Z,16.75
2019-03-06T15:14:41.457Z,16.70
2019-03-06T15:17:11.066Z,16.49
2019-03-06T15:19:40.711Z,16.35
2019-03-06T15:22:10.223Z,16.18
2019-03-06T15:24:41.705Z,16.15
2019-03-06T15:27:11.074Z,16.00
2019-03-06T15:29:40.900Z,15.87
2019-03-06T15:32:10.190Z,15.69
2019-03-06T15:34:39.854Z,15.64
2019-03-06T15:37:09.536Z,15.59
2019-03-06T15:39:46.644Z,15.57
2019-03-06T15:42:10.718Z,15.52
2019-03-06T15:44:40.481Z,15.53
2019-03-06T15:47:10.569Z,15.51
2019-03-06T15:49:40.291Z,15.42
2019-03-06T15:52:10.165Z,15.47
2019-03-06T15:54:39.875Z,15.51
2019-03-06T15:57:10.167Z,15.45
2019-03-06T15:59:40.165Z,15.44
2019-03-06T16:02:10.037Z,15.38
2019-03-06T16:04:41.883Z,15.37
2019-03-06T16:07:30.842Z,15.33
2019-03-06T16:10:00.462Z,15.32
2019-03-06T16:12:30.158Z,15.28
2019-03-06T16:14:59.805Z,15.24
2019-03-06T16:17:29.449Z,15.19
2019-03-06T16:19:59.101Z,15.19
2019-03-06T16:22:28.590Z,15.02
2019-03-06T16:24:57.764Z,15.02
2019-03-06T16:27:27.239Z,15.04
2019-03-06T16:29:56.837Z,14.96
2019-03-06T16:32:27.994Z,14.98
2019-03-06T16:34:57.564Z,14.97
2019-03-06T16:37:26.998Z,14.80
2019-03-06T16:39:56.577Z,14.79
2019-03-06T16:42:26.140Z,14.79
2019-03-06T16:44:55.706Z,14.67
2019-03-06T16:47:25.495Z,14.69
2019-03-06T16:49:54.938Z,14.63
2019-03-06T16:52:24.466Z,14.62
2019-03-06T16:54:54.149Z,14.55
2019-03-06T16:57:23.931Z,14.57
2019-03-06T16:59:53.636Z,14.45
2019-03-06T17:02:23.298Z,14.27
2019-03-06T17:04:52.908Z,14.24
2019-03-06T17:07:22.489Z,14.02
2019-03-06T17:09:52.083Z,14.00
2019-03-06T17:12:21.718Z,13.86
2019-03-06T17:14:51.409Z,13.71
2019-03-06T17:17:20.982Z,13.63
2019-03-06T17:19:50.643Z,13.69
2019-03-06T17:22:20.358Z,13.59
2019-03-06T17:24:50.013Z,13.71
2019-03-06T17:27:19.644Z,13.63
2019-03-06T17:29:49.368Z,13.67
2019-03-06T17:32:18.885Z,13.66
2019-03-06T17:34:48.612Z,13.70
2019-03-06T17:37:18.361Z,13.56
2019-03-06T17:39:47.993Z,13.66
2019-03-06T17:42:18.106Z,13.66
2019-03-06T17:44:47.597Z,13.61
2019-03-06T17:47:17.113Z,13.60
2019-03-06T17:49:46.675Z,13.58
2019-03-06T17:52:16.224Z,13.66
2019-03-06T17:54:45.836Z,13.64
2019-03-06T17:57:15.482Z,13.58
2019-03-06T17:59:45.076Z,13.67
2019-03-06T18:02:14.700Z,13.59
2019-03-06T18:04:44.157Z,13.46
2019-03-06T18:07:13.850Z,13.37
2019-03-06T18:09:43.573Z,13.38
2019-03-06T18:12:13.266Z,13.22
2019-03-06T18:14:42.753Z,13.18
2019-03-06T18:17:12.343Z,13.03
2019-03-06T18:19:42.073Z,12.95
2019-03-06T18:22:11.850Z,12.96
2019-03-06T18:24:41.562Z,12.78
2019-03-06T18:27:11.253Z,12.65
2019-03-06T18:29:40.855Z,12.50
2019-03-06T18:32:10.885Z,12.45
2019-03-06T18:34:40.442Z,12.38
2019-03-06T18:37:10.950Z,12.33
2019-03-06T18:39:40.630Z,12.31
2019-03-06T18:42:10.577Z,12.22
2019-03-06T18:44:40.468Z,12.15
2019-03-06T18:47:10.584Z,12.09
2019-03-06T18:49:40.088Z,12.14
2019-03-06T18:52:10.111Z,12.12
2019-03-06T18:54:39.598Z,12.13
2019-03-06T18:57:09.913Z,12.09
2019-03-06T18:59:39.939Z,12.12
2019-03-06T19:02:09.772Z,12.21
2019-03-06T19:04:39.202Z,12.13
2019-03-06T19:07:09.070Z,12.02
2019-03-06T19:09:38.638Z,11.74
2019-03-06T19:12:08.216Z,11.82
2019-03-06T19:14:37.670Z,11.99
2019-03-06T19:17:07.234Z,11.91
2019-03-06T19:19:37.156Z,11.87
2019-03-06T19:22:07.021Z,11.96
2019-03-06T19:24:36.569Z,11.92
2019-03-06T19:27:06.118Z,11.73
2019-03-06T19:29:35.583Z,11.63
2019-03-06T19:32:05.059Z,11.66
2019-03-06T19:34:34.680Z,11.71
2019-03-06T19:37:04.392Z,11.64
2019-03-06T19:39:33.842Z,11.58
2019-03-06T19:42:03.597Z,11.62
2019-03-06T19:44:33.155Z,11.55
2019-03-06T19:47:02.628Z,11.64
2019-03-06T19:49:32.157Z,11.64
2019-03-06T19:52:01.619Z,11.59
2019-03-06T19:54:31.200Z,11.57
2019-03-06T19:57:00.510Z,11.64
2019-03-06T19:59:31.893Z,11.67
2019-03-06T20:02:01.459Z,11.70
2019-03-06T20:04:30.990Z,11.78
2019-03-06T20:07:00.815Z,11.72
2019-03-06T20:09:30.508Z,11.64
2019-03-06T20:12:00.213Z,11.52
2019-03-06T20:14:29.906Z,11.49
2019-03-06T20:16:59.605Z,11.54
2019-03-06T20:19:29.133Z,11.72
2019-03-06T20:21:58.677Z,11.72
2019-03-06T20:24:28.159Z,11.66
2019-03-06T20:26:59.469Z,11.68
2019-03-06T20:29:28.998Z,11.68
2019-03-06T20:32:00.339Z,11.59
2019-03-06T20:34:29.849Z,11.53
2019-03-06T20:36:59.539Z,11.47
2019-03-06T20:39:30.386Z,11.41
2019-03-06T20:41:59.772Z,11.45
2019-03-06T20:44:29.422Z,11.56
2019-03-06T20:46:58.824Z,11.58
2019-03-06T20:49:28.608Z,11.72
2019-03-06T20:51:59.211Z,11.73
2019-03-06T20:54:28.611Z,11.70
2019-03-06T20:56:58.139Z,11.68
2019-03-06T20:59:27.686Z,11.60
2019-03-06T21:01:57.128Z,11.58
2019-03-06T21:04:26.579Z,11.55
2019-03-06T21:06:55.927Z,11.51
2019-03-06T21:09:25.828Z,11.53
2019-03-06T21:11:55.335Z,11.57
2019-03-06T21:14:24.990Z,11.58
2019-03-06T21:16:54.538Z,11.54
2019-03-06T21:19:24.482Z,11.58
2019-03-06T21:21:54.069Z,11.64
2019-03-06T21:24:23.928Z,11.61
2019-03-06T21:26:53.596Z,11.61
2019-03-06T21:29:23.195Z,11.67
2019-03-06T21:31:52.729Z,11.62
2019-03-06T21:34:22.189Z,11.58
2019-03-06T21:36:51.882Z,11.54
2019-03-06T21:39:23.601Z,11.60
2019-03-06T21:41:53.009Z,11.63
2019-03-06T21:44:22.548Z,11.63
2019-03-06T21:46:52.168Z,11.66
2019-03-06T21:49:21.793Z,11.73
2019-03-06T21:54:14.757Z,11.87
2019-03-06T21:56:44.228Z,11.80
2019-03-06T21:59:13.474Z,11.83
2019-03-06T22:01:43.008Z,11.82
2019-03-06T22:04:12.778Z,11.77
2019-03-06T22:06:42.701Z,11.76
2019-03-06T22:09:13.260Z,11.74
2019-03-06T22:11:42.722Z,11.68
2019-03-06T22:14:12.535Z,11.84
2019-03-06T22:16:42.049Z,11.78
2019-03-06T22:19:12.614Z,11.79
2019-03-06T22:21:42.168Z,11.84
2019-03-06T22:24:12.677Z,11.82
2019-03-06T22:26:42.194Z,11.86
2019-03-06T22:29:12.787Z,11.90
2019-03-06T22:31:43.233Z,11.86
2019-03-06T22:34:13.077Z,12.00
2019-03-06T22:36:42.609Z,11.92
2019-03-06T22:39:12.575Z,11.86
2019-03-06T22:41:42.058Z,11.93
2019-03-06T22:44:12.129Z,11.79
2019-03-06T22:46:41.740Z,11.81
2019-03-06T22:49:11.904Z,11.79
2019-03-06T22:51:41.683Z,11.83
2019-03-06T22:54:11.271Z,11.87
2019-03-06T22:56:40.828Z,11.82
2019-03-06T22:59:12.421Z,11.79
2019-03-06T23:01:42.629Z,11.63
2019-03-06T23:04:12.221Z,11.53
2019-03-06T23:06:41.772Z,11.58
2019-03-06T23:09:11.801Z,11.55
2019-03-06T23:11:41.686Z,11.62
2019-03-06T23:14:11.884Z,11.62
2019-03-06T23:16:41.458Z,11.60
2019-03-06T23:19:11.496Z,11.67
2019-03-06T23:21:41.027Z,11.63
2019-03-06T23:24:11.245Z,11.74
2019-03-06T23:26:43.154Z,11.70
2019-03-06T23:29:12.471Z,11.64
2019-03-06T23:31:42.186Z,11.72
2019-03-06T23:34:12.416Z,11.61
2019-03-06T23:36:41.863Z,11.53
2019-03-06T23:39:12.962Z,11.53
2019-03-06T23:41:42.474Z,11.55
2019-03-06T23:44:12.303Z,11.62
2019-03-06T23:46:42.545Z,11.48
2019-03-06T23:49:12.316Z,11.58
2019-03-06T23:51:43.583Z,11.52
2019-03-06T23:54:13.243Z,11.45
2019-03-06T23:56:42.689Z,11.56
2019-03-06T23:59:12.397Z,11.56
